Time;durP1;ratioP1;P1;durP2;ratioP2;P2;SDS_P1;SDS_P2;PMS_P1;PMS_P2;Temp;Humidity;BMP_temperature;BMP_pressure;BME280_temperature;BME280_humidity;BME280_pressure;Samples;Min_cycle;Max_cycle;Signal;HPM_P1;HPM_P2
2023/07/29 00:00:23;;;;;;;6.40;3.70;;;19.60;99.90;;;;;;4232589;28;20043;-81
2023/07/29 00:02:23;;;;;;;6.03;3.22;;;19.60;99.90;;;;;;4230832;28;20070;-81
2023/07/29 00:04:24;;;;;;;6.50;3.30;;;19.60;99.90;;;;;;4231585;28;20154;-81
2023/07/29 00:06:25;;;;;;;5.18;3.30;;;19.50;99.90;;;;;;4231218;28;20048;-81
2023/07/29 00:08:26;;;;;;;10.18;3.60;;;19.50;99.90;;;;;;4231633;28;20104;-81
2023/07/29 00:10:27;;;;;;;4.93;3.03;;;19.50;99.90;;;;;;4231007;28;20055;-81
2023/07/29 00:12:27;;;;;;;5.88;3.20;;;19.50;99.90;;;;;;4231253;28;20511;-81
2023/07/29 00:14:29;;;;;;;6.28;3.38;;;19.50;99.90;;;;;;4230913;28;20039;-81
2023/07/29 00:16:30;;;;;;;6.70;3.70;;;19.60;99.90;;;;;;4232214;28;20074;-81
2023/07/29 00:18:31;;;;;;;6.28;3.60;;;19.50;99.90;;;;;;4231058;28;20380;-81
2023/07/29 00:20:31;;;;;;;6.45;3.60;;;19.50;99.90;;;;;;4232677;28;20048;-81
2023/07/29 00:22:32;;;;;;;5.50;3.58;;;19.40;99.90;;;;;;4232040;28;20040;-81
2023/07/29 00:24:33;;;;;;;5.22;3.38;;;19.40;99.90;;;;;;4232335;28;20043;-81
2023/07/29 00:26:34;;;;;;;6.80;3.83;;;19.40;99.90;;;;;;4231899;28;20043;-81
2023/07/29 00:28:34;;;;;;;6.65;4.38;;;19.40;99.90;;;;;;4230819;28;20040;-82
2023/07/29 00:30:35;;;;;;;8.77;4.40;;;19.40;99.90;;;;;;4213542;28;20132;-81
2023/07/29 00:32:36;;;;;;;5.38;3.67;;;19.40;99.90;;;;;;4230629;28;20126;-81
2023/07/29 00:34:38;;;;;;;7.00;3.75;;;19.40;99.90;;;;;;4231965;28;20050;-81
2023/07/29 00:36:39;;;;;;;5.63;3.50;;;19.40;99.90;;;;;;4230840;28;20051;-81
2023/07/29 00:38:40;;;;;;;7.18;3.67;;;19.30;99.90;;;;;;4232326;28;20035;-81
2023/07/29 00:40:41;;;;;;;6.97;3.78;;;19.40;99.90;;;;;;4231228;28;20039;-81
2023/07/29 00:42:42;;;;;;;7.18;4.32;;;19.30;99.90;;;;;;4231893;28;20131;-81
2023/07/29 00:44:43;;;;;;;6.05;3.60;;;19.40;99.90;;;;;;4213648;28;20105;-81
2023/07/29 00:46:46;;;;;;;8.25;3.95;;;19.30;99.90;;;;;;4231818;28;20052;-81
2023/07/29 00:48:47;;;;;;;7.57;4.03;;;19.40;99.90;;;;;;4232410;28;20058;-81
2023/07/29 00:50:49;;;;;;;7.72;4.15;;;19.30;99.90;;;;;;4231420;28;20400;-81
2023/07/29 00:52:50;;;;;;;6.05;4.20;;;19.40;99.90;;;;;;4231863;28;20048;-78
2023/07/29 00:54:51;;;;;;;8.07;5.50;;;19.30;99.90;;;;;;4231895;28;20092;-80
2023/07/29 00:56:51;;;;;;;7.20;3.88;;;19.40;99.90;;;;;;4213515;28;20052;-80
2023/07/29 00:58:58;;;;;;;5.78;3.88;;;19.40;99.90;;;;;;4231248;28;20399;-80
2023/07/29 01:00:59;;;;;;;7.88;4.32;;;19.30;99.90;;;;;;4230340;28;20064;-80
2023/07/29 01:02:59;;;;;;;6.00;3.70;;;19.40;99.90;;;;;;4231266;28;20040;-80
2023/07/29 01:05:01;;;;;;;7.28;4.10;;;19.40;99.90;;;;;;4231640;28;20039;-80
2023/07/29 01:07:20;;;;;;;6.35;3.90;;;19.30;99.90;;;;;;4212933;28;20048;-80
2023/07/29 01:09:25;;;;;;;9.48;4.63;;;19.30;99.90;;;;;;4240143;28;20031;-81
2023/07/29 01:11:38;;;;;;;7.07;3.80;;;19.30;99.90;;;;;;4232583;28;20039;-80
2023/07/29 01:13:47;;;;;;;8.40;4.15;;;19.30;99.90;;;;;;4229984;28;20181;-80
2023/07/29 01:15:58;;;;;;;7.15;4.30;;;19.30;99.90;;;;;;4229940;28;20518;-80
2023/07/29 01:18:08;;;;;;;7.07;4.07;;;19.20;99.90;;;;;;4231088;28;20055;-80
2023/07/29 01:20:15;;;;;;;8.77;4.63;;;19.20;99.90;;;;;;4232600;28;20055;-80
2023/07/29 01:22:17;;;;;;;8.60;3.97;;;19.20;99.90;;;;;;4232744;28;20086;-80
2023/07/29 01:24:18;;;;;;;8.20;4.35;;;19.20;99.90;;;;;;4230587;28;20154;-80
2023/07/29 01:26:18;;;;;;;6.22;3.90;;;19.20;99.90;;;;;;4231413;28;20039;-80
2023/07/29 01:28:19;;;;;;;6.70;4.30;;;19.10;99.90;;;;;;4230891;28;20092;-80
2023/07/29 01:30:26;;;;;;;9.55;4.25;;;19.10;99.90;;;;;;4229798;28;20047;-80
2023/07/29 01:32:39;;;;;;;10.27;4.63;;;19.10;99.90;;;;;;4231086;28;20507;-80
2023/07/29 01:34:51;;;;;;;10.45;4.50;;;19.00;99.90;;;;;;4231174;28;20039;-80
2023/07/29 01:36:54;;;;;;;8.18;4.53;;;19.00;99.90;;;;;;4229388;28;20094;-80
2023/07/29 01:38:56;;;;;;;6.25;4.13;;;19.00;99.90;;;;;;4231143;28;20092;-80
2023/07/29 01:40:57;;;;;;;7.72;4.97;;;18.90;99.90;;;;;;4230129;28;20067;-80
2023/07/29 01:42:58;;;;;;;6.78;4.82;;;18.90;99.90;;;;;;4230040;28;20083;-80
2023/07/29 01:45:00;;;;;;;8.80;4.28;;;18.90;99.90;;;;;;4229709;28;20062;-80
2023/07/29 01:47:01;;;;;;;6.75;4.15;;;18.80;99.90;;;;;;4229734;28;20434;-80
2023/07/29 01:49:01;;;;;;;7.22;4.43;;;18.80;99.90;;;;;;4212395;28;20040;-80
2023/07/29 01:51:02;;;;;;;8.70;3.97;;;18.70;99.90;;;;;;4230710;28;20039;-80
2023/07/29 01:53:03;;;;;;;8.30;4.72;;;18.70;99.90;;;;;;4229356;28;20531;-80
2023/07/29 01:55:04;;;;;;;6.80;4.03;;;18.70;99.90;;;;;;4231185;28;20411;-80
2023/07/29 01:57:05;;;;;;;10.10;4.65;;;18.60;99.90;;;;;;4229413;28;20059;-80
2023/07/29 01:59:06;;;;;;;12.80;5.50;;;18.60;99.90;;;;;;4229364;28;20055;-80
2023/07/29 02:01:06;;;;;;;7.05;4.85;;;18.60;99.90;;;;;;4229090;28;20048;-80
2023/07/29 02:03:07;;;;;;;7.07;4.65;;;18.50;99.90;;;;;;4229185;28;20039;-80
2023/07/29 02:05:08;;;;;;;10.02;4.82;;;18.50;99.90;;;;;;4230648;28;20086;-80
2023/07/29 02:07:08;;;;;;;9.45;4.82;;;18.40;99.90;;;;;;4229123;28;20044;-80
2023/07/29 02:09:09;;;;;;;7.47;4.50;;;18.40;99.90;;;;;;4230744;28;20043;-80
2023/07/29 02:11:10;;;;;;;8.10;4.63;;;18.40;99.90;;;;;;4230029;28;20055;-80
2023/07/29 02:13:11;;;;;;;10.10;4.85;;;18.40;99.90;;;;;;4228729;28;20052;-80
2023/07/29 02:15:12;;;;;;;8.70;4.93;;;18.40;99.90;;;;;;4230773;28;20080;-80
2023/07/29 02:17:13;;;;;;;8.00;4.82;;;18.40;99.90;;;;;;4230309;28;20042;-80
2023/07/29 02:19:14;;;;;;;8.77;5.75;;;18.30;99.90;;;;;;4230350;28;20039;-80
2023/07/29 02:21:14;;;;;;;7.85;4.95;;;18.30;99.90;;;;;;4229312;28;20423;-80
2023/07/29 02:23:18;;;;;;;8.02;4.55;;;18.30;99.90;;;;;;4228872;28;20556;-80
2023/07/29 02:25:19;;;;;;;10.20;5.32;;;18.20;99.90;;;;;;4230422;28;20051;-80
2023/07/29 02:27:20;;;;;;;9.77;4.85;;;18.20;99.90;;;;;;4212240;28;20052;-80
2023/07/29 02:29:21;;;;;;;8.25;4.50;;;18.20;99.90;;;;;;4230788;28;20043;-80
2023/07/29 02:31:23;;;;;;;9.25;5.30;;;18.20;99.90;;;;;;4229488;28;20111;-80
2023/07/29 02:33:24;;;;;;;9.18;5.15;;;18.10;99.90;;;;;;4228943;28;20104;-80
2023/07/29 02:35:25;;;;;;;11.20;5.32;;;18.10;99.90;;;;;;4230604;28;20047;-80
2023/07/29 02:37:25;;;;;;;8.15;4.53;;;18.10;99.90;;;;;;4230310;28;20125;-80
2023/07/29 02:39:26;;;;;;;9.93;4.82;;;18.10;99.90;;;;;;4229655;28;20096;-80
2023/07/29 02:41:27;;;;;;;11.18;5.22;;;18.00;99.90;;;;;;4212310;28;20083;-80
2023/07/29 02:43:27;;;;;;;9.38;5.22;;;18.00;99.90;;;;;;4230170;28;20504;-80
2023/07/29 02:45:29;;;;;;;9.27;5.32;;;18.00;99.90;;;;;;4230762;28;20395;-80
2023/07/29 02:47:29;;;;;;;7.25;4.65;;;18.00;99.90;;;;;;4230352;28;20071;-80
2023/07/29 02:49:30;;;;;;;11.98;5.05;;;18.00;99.90;;;;;;4230207;28;20070;-80
2023/07/29 02:51:31;;;;;;;10.15;5.25;;;18.00;99.90;;;;;;4229824;28;20039;-80
2023/07/29 02:53:31;;;;;;;8.73;5.40;;;18.00;99.90;;;;;;4229205;28;20052;-80
2023/07/29 02:55:33;;;;;;;10.93;5.50;;;17.90;99.90;;;;;;4229272;28;20130;-80
2023/07/29 02:57:34;;;;;;;6.32;4.22;;;17.90;99.90;;;;;;4230110;28;20079;-80
2023/07/29 02:59:34;;;;;;;11.45;4.95;;;17.90;99.90;;;;;;4233030;28;20051;-80
2023/07/29 03:01:35;;;;;;;8.98;5.28;;;17.90;99.90;;;;;;4233104;28;20387;-79
2023/07/29 03:03:36;;;;;;;9.30;5.68;;;17.90;99.90;;;;;;4231674;28;20047;-80
2023/07/29 03:05:38;;;;;;;7.07;4.40;;;17.80;99.90;;;;;;4233509;28;20047;-80
2023/07/29 03:07:38;;;;;;;9.13;4.85;;;17.80;99.90;;;;;;4232764;28;20113;-80
2023/07/29 03:09:41;;;;;;;7.07;5.05;;;18.10;99.90;;;;;;4233212;28;20055;-80
2023/07/29 03:11:42;;;;;;;11.77;4.70;;;17.80;99.90;;;;;;4215355;28;20036;-80
2023/07/29 03:13:43;;;;;;;9.25;5.50;;;17.70;99.90;;;;;;4233056;28;20104;-80
2023/07/29 03:15:44;;;;;;;9.50;5.28;;;17.80;99.90;;;;;;4233199;28;20054;-80
2023/07/29 03:17:45;;;;;;;10.75;5.15;;;17.70;99.90;;;;;;4232872;28;20035;-80
2023/07/29 03:19:45;;;;;;;10.30;5.30;;;17.70;99.90;;;;;;4214705;28;20054;-80
2023/07/29 03:21:46;;;;;;;7.95;4.82;;;17.70;99.90;;;;;;4233318;28;20039;-80
2023/07/29 03:23:47;;;;;;;9.40;4.95;;;17.70;99.90;;;;;;4231802;28;20039;-80
2023/07/29 03:25:56;;;;;;;7.63;4.82;;;17.70;99.90;;;;;;4233152;28;20044;-80
2023/07/29 03:27:57;;;;;;;7.65;4.90;;;17.60;99.90;;;;;;4231648;28;20127;-80
2023/07/29 03:29:57;;;;;;;7.65;4.60;;;17.60;99.90;;;;;;4231509;28;20046;-80
2023/07/29 03:31:58;;;;;;;8.52;5.10;;;17.60;99.90;;;;;;4231248;28;20413;-80
2023/07/29 03:33:59;;;;;;;8.75;4.28;;;17.60;99.90;;;;;;4231818;28;20051;-80
2023/07/29 03:35:59;;;;;;;8.68;4.47;;;17.60;99.90;;;;;;4233079;28;20047;-80
2023/07/29 03:38:00;;;;;;;7.75;4.45;;;17.60;99.90;;;;;;4231473;28;20050;-80
2023/07/29 03:40:01;;;;;;;8.32;4.40;;;17.60;99.90;;;;;;4232843;28;20484;-80
2023/07/29 03:42:01;;;;;;;10.68;5.10;;;17.50;99.90;;;;;;4232140;28;20057;-80
2023/07/29 03:44:03;;;;;;;7.57;4.40;;;17.50;99.90;;;;;;4232130;28;20050;-80
2023/07/29 03:46:05;;;;;;;8.90;4.53;;;17.50;99.90;;;;;;4232858;28;20040;-80
2023/07/29 03:48:06;;;;;;;8.70;4.80;;;17.50;99.90;;;;;;4231167;28;20120;-80
2023/07/29 03:50:08;;;;;;;7.53;4.25;;;17.50;99.90;;;;;;4231431;28;20051;-80
2023/07/29 03:52:12;;;;;;;10.25;4.45;;;17.40;99.90;;;;;;4232211;28;20467;-80
2023/07/29 03:54:12;;;;;;;11.32;4.45;;;17.40;99.90;;;;;;4232758;28;20177;-80
2023/07/29 03:56:13;;;;;;;7.28;3.97;;;17.40;99.90;;;;;;4232627;28;20039;-80
2023/07/29 03:58:16;;;;;;;8.32;4.47;;;17.40;99.90;;;;;;4230980;28;20412;-80
2023/07/29 04:00:17;;;;;;;9.57;4.07;;;17.40;99.90;;;;;;4232676;28;20039;-80
2023/07/29 04:02:18;;;;;;;10.50;4.25;;;17.40;99.90;;;;;;4231927;28;20051;-80
2023/07/29 04:04:18;;;;;;;8.68;4.30;;;17.60;99.90;;;;;;4232905;28;20046;-80
2023/07/29 04:06:19;;;;;;;12.00;5.45;;;17.40;99.90;;;;;;4232327;28;20130;-80
2023/07/29 04:08:20;;;;;;;12.63;4.72;;;17.40;99.90;;;;;;4232462;28;20564;-80
2023/07/29 04:10:24;;;;;;;6.65;3.78;;;17.40;99.90;;;;;;4232126;28;20543;-80
2023/07/29 04:12:24;;;;;;;8.23;4.22;;;17.40;99.90;;;;;;4232220;28;20039;-80
2023/07/29 04:14:25;;;;;;;9.23;4.18;;;17.30;99.90;;;;;;4231012;28;20044;-80
2023/07/29 04:16:26;;;;;;;10.38;4.80;;;17.30;99.90;;;;;;4232022;28;20048;-80
2023/07/29 04:18:26;;;;;;;9.80;4.25;;;17.40;99.90;;;;;;4232443;28;20430;-80
2023/07/29 04:20:27;;;;;;;7.95;3.70;;;17.30;99.90;;;;;;4232741;28;20044;-80
2023/07/29 04:22:28;;;;;;;6.55;3.63;;;17.40;99.90;;;;;;4230772;28;20142;-80
2023/07/29 04:24:32;;;;;;;8.60;4.38;;;17.30;99.90;;;;;;4232104;28;20445;-80
2023/07/29 04:26:32;;;;;;;8.60;3.97;;;17.40;99.90;;;;;;4232350;28;20047;-80
2023/07/29 04:28:33;;;;;;;7.82;4.47;;;17.30;99.90;;;;;;4230020;28;20059;-80
2023/07/29 04:30:34;;;;;;;8.95;3.53;;;17.40;99.90;;;;;;4231995;28;20042;-80
2023/07/29 04:32:34;;;;;;;5.97;3.58;;;17.40;99.90;;;;;;4231717;28;20035;-80
2023/07/29 04:34:35;;;;;;;8.75;3.85;;;17.40;99.90;;;;;;4231872;28;20127;-80
2023/07/29 04:36:37;;;;;;;7.68;3.60;;;17.50;99.90;;;;;;4213853;28;20052;-80
2023/07/29 04:38:38;;;;;;;8.40;3.72;;;17.30;99.90;;;;;;4231132;28;20505;-80
2023/07/29 04:40:39;;;;;;;4.95;3.00;;;17.40;99.90;;;;;;4231809;28;20053;-80
2023/07/29 04:42:39;;;;;;;6.95;3.47;;;17.40;99.90;;;;;;4231643;28;20533;-80
2023/07/29 04:44:41;;;;;;;6.30;3.58;;;17.80;99.90;;;;;;4231015;28;20051;-80
2023/07/29 04:46:43;;;;;;;7.10;3.53;;;17.40;99.90;;;;;;4231484;28;20044;-80
2023/07/29 04:48:43;;;;;;;6.95;3.33;;;17.50;99.90;;;;;;4231442;28;20557;-80
2023/07/29 04:50:44;;;;;;;7.60;3.42;;;17.70;99.90;;;;;;4231930;28;20032;-80
2023/07/29 04:52:45;;;;;;;8.70;3.40;;;17.50;99.90;;;;;;4213508;28;20109;-80
2023/07/29 04:54:45;;;;;;;6.35;3.20;;;17.40;99.90;;;;;;4231885;28;20043;-80
2023/07/29 04:56:46;;;;;;;6.53;2.88;;;17.50;99.90;;;;;;4213757;28;20052;-80
2023/07/29 04:58:47;;;;;;;6.22;3.13;;;17.50;99.90;;;;;;4231392;28;20039;-80
2023/07/29 05:00:48;;;;;;;5.43;2.47;;;17.50;99.90;;;;;;4231083;28;20289;-80
2023/07/29 05:02:48;;;;;;;5.38;2.70;;;17.60;99.90;;;;;;4231353;28;20097;-80
2023/07/29 05:04:49;;;;;;;9.38;2.78;;;17.60;99.90;;;;;;4231601;28;20462;-80
2023/07/29 05:06:50;;;;;;;7.07;2.78;;;17.70;99.90;;;;;;4230090;28;20051;-80
2023/07/29 05:08:51;;;;;;;9.73;2.90;;;17.60;99.90;;;;;;4231157;28;20455;-80
2023/07/29 05:10:53;;;;;;;5.53;2.53;;;17.50;99.90;;;;;;4229977;28;20039;-80
2023/07/29 05:12:54;;;;;;;10.98;3.65;;;17.80;99.90;;;;;;4230047;28;20132;-80
2023/07/29 05:14:55;;;;;;;5.28;2.70;;;17.70;99.90;;;;;;4231803;28;20035;-80
2023/07/29 05:16:55;;;;;;;6.50;2.17;;;17.60;99.90;;;;;;4231174;27;20104;-80
2023/07/29 05:18:57;;;;;;;5.30;2.67;;;17.80;99.90;;;;;;4231267;28;20046;-80
2023/07/29 05:20:58;;;;;;;7.70;2.22;;;17.70;99.90;;;;;;4231276;28;20047;-80
2023/07/29 05:22:59;;;;;;;4.93;2.30;;;17.70;99.90;;;;;;4230420;28;20059;-80
2023/07/29 05:24:59;;;;;;;6.90;2.40;;;17.70;99.90;;;;;;4231346;28;20377;-80
2023/07/29 05:27:00;;;;;;;5.80;2.80;;;17.60;99.90;;;;;;4230367;28;20584;-80
2023/07/29 05:29:01;;;;;;;10.13;2.95;;;17.60;99.90;;;;;;4230961;28;20064;-80
2023/07/29 05:31:02;;;;;;;7.82;3.05;;;17.60;99.90;;;;;;4230906;28;20043;-80
2023/07/29 05:33:04;;;;;;;7.85;2.97;;;17.60;99.90;;;;;;4230864;28;20492;-80
2023/07/29 05:35:05;;;;;;;3.10;1.77;;;17.70;99.90;;;;;;4230976;28;20048;-80
2023/07/29 05:37:06;;;;;;;4.57;1.70;;;17.70;99.90;;;;;;4230011;28;20044;-80
2023/07/29 05:39:07;;;;;;;5.38;2.03;;;17.70;99.90;;;;;;4229772;28;20403;-80
2023/07/29 05:41:07;;;;;;;4.28;1.60;;;17.80;99.90;;;;;;4231437;28;20071;-80
2023/07/29 05:43:08;;;;;;;4.00;1.92;;;17.70;99.90;;;;;;4230992;28;20043;-80
2023/07/29 05:45:09;;;;;;;4.80;2.08;;;17.80;99.90;;;;;;4229915;28;20105;-80
2023/07/29 05:47:10;;;;;;;3.88;1.83;;;17.00;99.90;;;;;;4230342;28;20047;-80
2023/07/29 05:49:11;;;;;;;3.40;1.77;;;17.80;99.90;;;;;;4231241;28;20506;-80
2023/07/29 05:51:11;;;;;;;4.75;1.88;;;17.80;99.90;;;;;;4231099;28;20043;-80
2023/07/29 05:53:12;;;;;;;6.20;2.50;;;17.80;99.90;;;;;;4230915;28;20051;-80
2023/07/29 05:55:13;;;;;;;5.15;2.40;;;17.80;99.90;;;;;;4231076;28;20043;-80
2023/07/29 05:57:13;;;;;;;5.45;2.25;;;17.90;99.90;;;;;;4230759;28;20093;-80
2023/07/29 05:59:14;;;;;;;6.03;1.75;;;17.90;99.90;;;;;;4230725;28;20093;-79
2023/07/29 06:01:15;;;;;;;5.30;1.88;;;17.90;99.90;;;;;;4239297;28;20527;-80
2023/07/29 06:03:16;;;;;;;6.72;2.03;;;17.80;99.90;;;;;;4244966;28;20065;-80
2023/07/29 06:05:16;;;;;;;5.57;2.03;;;17.90;99.90;;;;;;4231964;28;20118;-80
2023/07/29 06:07:17;;;;;;;9.40;2.30;;;17.80;99.90;;;;;;4230556;28;20039;-80
2023/07/29 06:09:18;;;;;;;4.10;1.90;;;18.00;99.90;;;;;;4230521;28;20042;-80
2023/07/29 06:11:18;;;;;;;3.80;1.88;;;17.90;99.90;;;;;;4230661;28;20043;-80
2023/07/29 06:13:19;;;;;;;6.57;2.13;;;17.80;99.90;;;;;;4229075;28;20039;-80
2023/07/29 06:15:22;;;;;;;5.80;2.22;;;17.90;99.90;;;;;;4229490;28;20047;-80
2023/07/29 06:17:23;;;;;;;4.20;2.15;;;18.00;99.90;;;;;;4230398;28;20456;-80
2023/07/29 06:19:23;;;;;;;7.22;2.38;;;17.90;99.90;;;;;;4230401;28;20047;-80
2023/07/29 06:21:24;;;;;;;3.40;1.98;;;18.00;99.90;;;;;;4230897;28;20051;-80
2023/07/29 06:23:25;;;;;;;6.03;2.00;;;17.90;99.90;;;;;;4229781;28;20047;-80
2023/07/29 06:25:25;;;;;;;9.93;3.03;;;17.90;99.90;;;;;;4230832;28;20048;-80
2023/07/29 06:27:27;;;;;;;5.28;1.88;;;18.00;99.90;;;;;;4229153;28;20127;-80
2023/07/29 06:29:27;;;;;;;3.42;2.33;;;18.20;99.90;;;;;;4229259;28;20043;-80
2023/07/29 06:31:29;;;;;;;7.90;2.75;;;18.00;99.90;;;;;;4230803;28;20039;-80
2023/07/29 06:33:30;;;;;;;5.95;2.08;;;18.10;99.90;;;;;;4231303;28;20051;-80
2023/07/29 06:35:30;;;;;;;7.60;2.13;;;18.10;99.90;;;;;;4233237;28;20118;-80
2023/07/29 06:37:33;;;;;;;4.28;1.85;;;18.30;99.90;;;;;;4233503;28;20039;-80
2023/07/29 06:39:33;;;;;;;4.82;2.08;;;18.50;99.90;;;;;;4233630;28;20348;-80
2023/07/29 06:41:34;;;;;;;11.18;2.30;;;18.50;99.90;;;;;;4234228;28;20040;-80
2023/07/29 06:43:35;;;;;;;18.67;2.40;;;18.30;99.90;;;;;;4232355;28;20050;-80
2023/07/29 06:45:35;;;;;;;11.07;2.28;;;18.70;99.90;;;;;;4234143;28;20542;-80
2023/07/29 06:47:36;;;;;;;3.90;2.20;;;18.80;99.90;;;;;;4232536;28;20418;-80
2023/07/29 06:49:37;;;;;;;5.78;2.47;;;18.70;99.90;;;;;;4234410;28;20031;-80
2023/07/29 06:51:38;;;;;;;9.13;2.80;;;19.30;99.90;;;;;;4233393;28;20086;-80
2023/07/29 06:53:38;;;;;;;4.65;1.83;;;18.80;99.90;;;;;;4233610;28;20356;-80
2023/07/29 06:55:39;;;;;;;10.10;1.85;;;18.80;99.90;;;;;;4234124;28;20040;-80
2023/07/29 06:57:40;;;;;;;4.22;1.95;;;18.90;99.90;;;;;;4233613;28;20035;-80
2023/07/29 06:59:41;;;;;;;8.15;2.15;;;18.90;99.90;;;;;;4233444;28;20104;-79
2023/07/29 07:01:42;;;;;;;6.38;2.30;;;18.90;99.90;;;;;;4233405;28;20056;-79
2023/07/29 07:03:42;;;;;;;3.92;1.63;;;18.80;99.90;;;;;;4231785;28;20055;-80
2023/07/29 07:05:43;;;;;;;6.15;2.50;;;18.90;99.90;;;;;;4232842;28;20088;-80
2023/07/29 07:07:44;;;;;;;5.78;2.00;;;19.10;99.90;;;;;;4233476;28;20384;-80
2023/07/29 07:09:45;;;;;;;6.72;2.55;;;19.00;99.90;;;;;;4232418;28;20105;-80
2023/07/29 07:11:45;;;;;;;6.53;2.28;;;18.90;99.90;;;;;;4234862;28;20043;-80
2023/07/29 07:13:46;;;;;;;7.75;2.20;;;17.80;99.90;;;;;;4233736;28;20051;-80
2023/07/29 07:15:47;;;;;;;5.72;2.17;;;19.00;99.90;;;;;;4233285;28;20372;-80
2023/07/29 07:17:47;;;;;;;7.22;2.75;;;19.10;99.90;;;;;;4233094;28;20043;-80
2023/07/29 07:19:48;;;;;;;5.25;2.38;;;19.20;99.90;;;;;;4233083;28;20406;-79
2023/07/29 07:21:49;;;;;;;10.27;2.55;;;19.20;99.90;;;;;;4234232;28;20096;-79
2023/07/29 07:23:50;;;;;;;6.03;2.53;;;19.20;99.90;;;;;;4234521;28;20043;-80
2023/07/29 07:25:51;;;;;;;8.13;2.63;;;19.10;99.90;;;;;;4246072;28;20055;-80
2023/07/29 07:27:51;;;;;;;10.50;2.10;;;19.20;99.90;;;;;;4253373;28;20170;-80
2023/07/29 07:29:52;;;;;;;8.35;2.13;;;19.10;99.90;;;;;;4240553;28;20377;-80
2023/07/29 07:31:54;;;;;;;4.63;2.20;;;19.30;99.90;;;;;;4233210;28;20046;-80
2023/07/29 07:33:55;;;;;;;10.20;2.53;;;19.30;99.90;;;;;;4232651;28;20071;-79
2023/07/29 07:35:55;;;;;;;5.00;2.42;;;19.30;99.90;;;;;;4233083;28;20044;-80
2023/07/29 07:37:56;;;;;;;5.47;2.45;;;19.60;99.90;;;;;;4232267;28;20047;-80
2023/07/29 07:39:57;;;;;;;5.15;2.30;;;19.40;99.90;;;;;;4233585;28;20387;-79
2023/07/29 07:41:58;;;;;;;12.85;2.90;;;19.40;99.90;;;;;;4236231;28;20109;-80
2023/07/29 07:43:58;;;;;;;6.88;2.40;;;19.50;99.90;;;;;;4238149;28;20055;-79
2023/07/29 07:46:01;;;;;;;6.80;2.00;;;19.50;99.90;;;;;;4236434;28;20051;-80
2023/07/29 07:48:02;;;;;;;5.35;2.83;;;18.40;99.90;;;;;;4232881;28;20050;-80
2023/07/29 07:50:03;;;;;;;6.10;2.85;;;19.70;99.90;;;;;;4232228;28;20040;-80
2023/07/29 07:52:04;;;;;;;7.13;2.33;;;20.50;99.90;;;;;;4232689;28;20118;-80
2023/07/29 07:54:05;;;;;;;5.93;2.22;;;19.90;99.90;;;;;;4232765;28;20473;-80
2023/07/29 07:56:06;;;;;;;5.30;2.28;;;20.00;99.90;;;;;;4233122;28;20052;-80
2023/07/29 07:58:07;;;;;;;12.18;3.17;;;20.10;99.90;;;;;;4233074;27;20118;-80
2023/07/29 08:00:09;;;;;;;9.70;2.47;;;20.00;99.90;;;;;;4232677;28;20048;-80
2023/07/29 08:02:10;;;;;;;8.73;3.10;;;20.00;99.90;;;;;;4231056;28;20174;-80
2023/07/29 08:04:11;;;;;;;6.35;2.05;;;19.90;99.90;;;;;;4232500;27;20449;-80
2023/07/29 08:06:12;;;;;;;9.55;2.58;;;20.00;99.90;;;;;;4231331;28;20039;-80
2023/07/29 08:08:13;;;;;;;10.63;2.95;;;20.20;99.90;;;;;;4232487;28;20050;-80
2023/07/29 08:10:13;;;;;;;8.18;2.50;;;20.50;99.90;;;;;;4232873;28;20040;-80
2023/07/29 08:12:14;;;;;;;5.72;2.30;;;20.60;99.90;;;;;;4232205;28;20075;-80
2023/07/29 08:14:16;;;;;;;6.20;1.80;;;21.00;99.90;;;;;;4230586;28;20042;-80
2023/07/29 08:16:16;;;;;;;8.55;3.20;;;20.70;99.90;;;;;;4232333;28;20043;-80
2023/07/29 08:18:18;;;;;;;8.32;2.60;;;20.60;99.90;;;;;;4232458;28;20515;-80
2023/07/29 08:20:18;;;;;;;6.45;2.08;;;20.70;99.90;;;;;;4231959;28;20053;-80
2023/07/29 08:22:20;;;;;;;5.10;2.15;;;20.80;99.90;;;;;;4232164;28;20479;-80
2023/07/29 08:24:21;;;;;;;6.35;2.15;;;21.00;99.90;;;;;;4232188;28;20043;-80
2023/07/29 08:26:21;;;;;;;4.95;2.60;;;21.10;99.90;;;;;;4232364;28;20145;-80
2023/07/29 08:28:23;;;;;;;7.30;2.17;;;21.10;99.90;;;;;;4231969;28;20352;-80
2023/07/29 08:30:23;;;;;;;8.02;2.03;;;21.00;99.90;;;;;;4232602;28;20043;-80
2023/07/29 08:32:24;;;;;;;5.03;2.08;;;20.90;99.90;;;;;;4230767;28;20485;-80
2023/07/29 08:34:25;;;;;;;7.82;2.25;;;21.00;99.90;;;;;;4232486;28;20040;-80
2023/07/29 08:36:26;;;;;;;6.18;2.38;;;20.90;99.90;;;;;;4230341;28;20529;-80
2023/07/29 08:38:27;;;;;;;17.63;2.38;;;21.20;99.90;;;;;;4230254;28;20051;-80
2023/07/29 08:40:31;;;;;;;8.38;2.03;;;21.30;99.90;;;;;;4231873;28;20110;-80
2023/07/29 08:42:33;;;;;;;2.65;1.50;;;21.20;99.90;;;;;;4231678;28;20491;-80
2023/07/29 08:44:41;;;;;;;5.53;2.15;;;21.20;99.90;;;;;;4231870;28;20079;-80
2023/07/29 08:46:42;;;;;;;7.13;2.00;;;21.20;99.90;;;;;;4230425;28;20450;-80
2023/07/29 08:48:43;;;;;;;4.93;1.92;;;21.10;99.90;;;;;;4231905;28;20114;-80
2023/07/29 08:50:45;;;;;;;3.38;1.48;;;21.10;99.90;;;;;;4231029;28;20044;-80
2023/07/29 08:52:46;;;;;;;4.35;1.70;;;21.00;99.90;;;;;;4231480;28;20118;-80
2023/07/29 08:54:47;;;;;;;7.75;1.70;;;20.90;99.90;;;;;;4231514;28;20050;-80
2023/07/29 08:56:49;;;;;;;6.88;1.52;;;20.90;99.90;;;;;;4231953;28;20582;-80
2023/07/29 08:58:50;;;;;;;4.78;1.52;;;20.90;99.90;;;;;;4230969;28;20081;-80
2023/07/29 09:00:50;;;;;;;4.10;1.33;;;21.10;99.90;;;;;;4213007;28;20058;-80
2023/07/29 09:02:51;;;;;;;2.92;1.42;;;21.40;99.90;;;;;;4231209;28;20042;-80
2023/07/29 09:04:53;;;;;;;5.72;1.40;;;21.80;99.90;;;;;;4231702;28;20419;-80
2023/07/29 09:06:56;;;;;;;2.33;1.27;;;22.00;99.90;;;;;;4230490;28;20043;-80
2023/07/29 09:08:58;;;;;;;5.95;1.35;;;22.10;99.90;;;;;;4230722;27;20134;-80
2023/07/29 09:10:59;;;;;;;2.72;1.10;;;22.60;99.90;;;;;;4231547;28;20044;-80
2023/07/29 09:13:01;;;;;;;4.93;1.30;;;22.40;99.90;;;;;;4231208;28;20135;-80
2023/07/29 09:15:02;;;;;;;3.42;1.45;;;22.50;99.90;;;;;;4231177;28;20054;-80
2023/07/29 09:17:08;;;;;;;3.67;1.40;;;22.50;99.90;;;;;;4231352;28;20075;-80
2023/07/29 09:19:09;;;;;;;4.30;1.35;;;22.70;99.90;;;;;;4212622;28;20818;-80
2023/07/29 09:21:09;;;;;;;6.00;1.77;;;22.90;99.90;;;;;;4231390;28;20039;-80
2023/07/29 09:23:10;;;;;;;9.73;2.08;;;22.90;99.90;;;;;;4231614;28;20036;-80
2023/07/29 09:25:16;;;;;;;4.25;1.30;;;22.90;99.90;;;;;;4229988;28;20513;-80
2023/07/29 09:27:27;;;;;;;3.50;1.00;;;22.50;99.90;;;;;;4231253;28;20047;-80
2023/07/29 09:29:28;;;;;;;5.40;1.55;;;22.40;99.90;;;;;;4231645;28;20051;-80
2023/07/29 09:31:29;;;;;;;2.65;1.05;;;22.30;99.90;;;;;;4213131;28;20102;-80
2023/07/29 09:33:37;;;;;;;3.65;1.00;;;22.40;99.90;;;;;;4243398;28;20036;-80
2023/07/29 09:35:38;;;;;;;5.93;1.20;;;22.40;99.90;;;;;;4250929;28;20039;-80
2023/07/29 09:37:39;;;;;;;2.45;0.98;;;22.30;99.90;;;;;;4236582;28;20047;-80
2023/07/29 09:39:44;;;;;;;5.22;1.63;;;22.50;99.90;;;;;;4232092;28;20399;-80
2023/07/29 09:41:49;;;;;;;3.30;1.17;;;22.70;99.90;;;;;;4232852;28;20039;-80
2023/07/29 09:43:58;;;;;;;1.85;1.00;;;22.70;99.90;;;;;;4249847;28;20089;-78
2023/07/29 09:46:04;;;;;;;2.70;0.77;;;22.80;99.90;;;;;;4250777;28;20046;-80
2023/07/29 09:48:09;;;;;;;3.90;1.30;;;22.70;99.90;;;;;;4232421;28;20047;-80
2023/07/29 09:50:09;;;;;;;3.30;1.02;;;22.80;99.90;;;;;;4213264;28;20080;-80
2023/07/29 09:52:12;;;;;;;3.53;1.48;;;23.90;99.90;;;;;;4231559;28;20039;-80
2023/07/29 09:54:14;;;;;;;5.93;1.60;;;23.10;99.90;;;;;;4230141;28;20056;-80
2023/07/29 09:56:16;;;;;;;5.25;1.35;;;23.10;99.90;;;;;;4231404;28;20075;-80
2023/07/29 09:58:26;;;;;;;2.92;0.93;;;23.30;99.90;;;;;;4230907;28;20566;-80
2023/07/29 10:00:28;;;;;;;7.10;0.98;;;23.50;99.90;;;;;;4230660;28;20052;-80
2023/07/29 10:02:30;;;;;;;2.35;0.80;;;23.60;99.90;;;;;;4212258;28;20075;-80
2023/07/29 10:04:32;;;;;;;4.50;1.38;;;23.60;99.90;;;;;;4213249;28;20048;-80
2023/07/29 10:06:34;;;;;;;3.55;0.80;;;23.50;99.90;;;;;;4230874;28;20055;-80
2023/07/29 10:08:35;;;;;;;2.97;0.60;;;23.40;99.90;;;;;;4229644;28;20035;-80
2023/07/29 10:10:36;;;;;;;1.13;0.50;;;23.40;99.90;;;;;;4231181;28;20518;-80
2023/07/29 10:12:39;;;;;;;1.80;0.80;;;23.50;99.90;;;;;;4230166;28;20035;-80
2023/07/29 10:14:41;;;;;;;2.25;0.90;;;23.70;99.90;;;;;;4212624;28;20131;-80
2023/07/29 10:16:45;;;;;;;2.83;1.00;;;23.80;99.90;;;;;;4230530;28;20043;-80
2023/07/29 10:18:45;;;;;;;2.10;1.00;;;24.10;99.90;;;;;;4228411;28;20087;-80
2023/07/29 10:20:50;;;;;;;3.30;0.88;;;24.20;99.90;;;;;;4230517;28;20411;-80
2023/07/29 10:22:54;;;;;;;3.88;0.70;;;24.30;99.90;;;;;;4228946;28;20098;-80
2023/07/29 10:25:02;;;;;;;1.52;0.73;;;24.30;99.90;;;;;;4230555;28;20044;-80
2023/07/29 10:27:05;;;;;;;1.57;0.80;;;24.30;99.90;;;;;;4229414;28;20051;-80
2023/07/29 10:29:10;;;;;;;3.05;0.82;;;24.30;99.90;;;;;;4228700;28;20281;-80
2023/07/29 10:31:11;;;;;;;4.28;1.17;;;24.20;99.90;;;;;;4229172;28;20048;-80